createdAt,value
2023-02-26T00:00:39.326Z,7.82
2023-02-26T00:03:06.570Z,8.13
2023-02-26T00:05:33.691Z,8.73
2023-02-26T00:08:00.795Z,7.65
2023-02-26T00:10:27.934Z,6.88
2023-02-26T00:12:55.168Z,7.50
2023-02-26T00:15:22.757Z,8.15
2023-02-26T00:17:49.910Z,7.78
2023-02-26T00:20:17.363Z,7.03
2023-02-26T00:22:44.704Z,6.50
2023-02-26T00:25:12.383Z,6.88
2023-02-26T00:27:39.762Z,7.53
2023-02-26T00:30:07.736Z,7.22
2023-02-26T00:32:35.461Z,5.85
2023-02-26T00:35:02.986Z,7.78
2023-02-26T00:37:39.132Z,7.05
2023-02-26T00:40:09.273Z,7.85
2023-02-26T00:42:36.483Z,7.57
2023-02-26T00:45:04.520Z,6.40
2023-02-26T00:47:34.684Z,7.07
2023-02-26T00:50:21.941Z,5.90
2023-02-26T00:52:49.005Z,5.55
2023-02-26T00:55:16.353Z,6.93
2023-02-26T00:57:43.511Z,7.00
2023-02-26T01:00:11.060Z,6.43
2023-02-26T01:02:38.968Z,6.57
2023-02-26T01:05:06.699Z,7.28
2023-02-26T01:07:54.400Z,6.88
2023-02-26T01:10:21.885Z,7.05
2023-02-26T01:12:49.160Z,7.35
2023-02-26T01:15:16.456Z,6.78
2023-02-26T01:17:49.628Z,7.85
2023-02-26T01:20:21.297Z,6.97
2023-02-26T01:22:48.346Z,6.68
2023-02-26T01:25:18.897Z,7.38
2023-02-26T01:27:46.086Z,7.00
2023-02-26T01:30:13.564Z,6.53
2023-02-26T01:32:51.895Z,6.25
2023-02-26T01:35:21.992Z,7.20
2023-02-26T01:37:57.106Z,6.65
2023-02-26T01:40:42.740Z,6.68
2023-02-26T01:43:32.817Z,7.15
2023-02-26T01:46:18.835Z,7.03
2023-02-26T01:48:51.306Z,6.97
2023-02-26T01:51:19.335Z,8.13
2023-02-26T01:53:46.548Z,8.52
2023-02-26T01:56:17.177Z,7.93
2023-02-26T01:58:44.917Z,7.57
2023-02-26T02:01:12.053Z,7.32
2023-02-26T02:03:40.516Z,7.70
2023-02-26T02:06:09.301Z,6.53
2023-02-26T02:08:36.720Z,7.28
2023-02-26T02:11:05.139Z,7.07
2023-02-26T02:13:32.208Z,6.40
2023-02-26T02:16:05.286Z,6.63
2023-02-26T02:18:41.536Z,6.47
2023-02-26T02:21:16.892Z,5.93
2023-02-26T02:23:46.009Z,5.40
2023-02-26T02:26:13.247Z,5.63
2023-02-26T02:28:57.954Z,5.20
2023-02-26T02:31:30.519Z,5.65
2023-02-26T02:34:13.013Z,5.55
2023-02-26T02:36:55.578Z,6.07
2023-02-26T02:39:38.203Z,5.45
2023-02-26T02:42:09.192Z,5.88
2023-02-26T02:44:38.812Z,6.03
2023-02-26T02:47:07.006Z,6.72
2023-02-26T02:49:37.018Z,5.50
2023-02-26T02:52:10.947Z,5.75
2023-02-26T02:54:45.659Z,6.25
2023-02-26T02:57:21.513Z,6.38
2023-02-26T02:59:50.083Z,6.35
2023-02-26T03:02:17.194Z,6.18
2023-02-26T03:04:44.613Z,6.15
2023-02-26T03:07:11.765Z,6.30
2023-02-26T03:09:38.843Z,6.38
2023-02-26T03:12:06.114Z,5.85
2023-02-26T03:14:33.612Z,5.65
2023-02-26T03:17:01.164Z,5.82
2023-02-26T03:19:47.194Z,4.90
2023-02-26T03:22:20.302Z,5.95
2023-02-26T03:24:53.401Z,5.43
2023-02-26T03:27:23.255Z,5.47
2023-02-26T03:29:52.162Z,5.53
2023-02-26T03:32:25.408Z,5.63
2023-02-26T03:35:00.627Z,5.53
2023-02-26T03:37:31.182Z,6.32
2023-02-26T03:40:00.501Z,6.15
2023-02-26T03:42:30.578Z,6.30
2023-02-26T03:44:59.784Z,6.10
2023-02-26T03:47:27.500Z,5.93
2023-02-26T03:50:02.670Z,5.85
2023-02-26T03:52:31.189Z,6.20
2023-02-26T03:55:03.713Z,5.88
2023-02-26T03:57:30.911Z,5.43
2023-02-26T03:59:58.086Z,5.35
2023-02-26T04:02:38.087Z,5.95
2023-02-26T04:05:13.530Z,6.15
2023-02-26T04:07:40.831Z,6.20
2023-02-26T04:10:09.624Z,5.60
2023-02-26T04:12:36.759Z,6.20
2023-02-26T04:15:05.336Z,6.10
2023-02-26T04:17:32.460Z,5.93
2023-02-26T04:19:59.554Z,6.45
2023-02-26T04:22:26.852Z,6.05
2023-02-26T04:24:53.931Z,6.15
2023-02-26T04:27:21.085Z,5.38
2023-02-26T04:29:48.225Z,6.00
2023-02-26T04:32:15.489Z,6.85
2023-02-26T04:34:42.637Z,6.18
2023-02-26T04:37:09.809Z,7.20
2023-02-26T04:39:36.883Z,6.45
2023-02-26T04:42:04.439Z,7.00
2023-02-26T04:44:32.200Z,6.20
2023-02-26T04:46:59.509Z,6.78
2023-02-26T04:49:26.672Z,6.50
2023-02-26T04:51:54.051Z,6.85
2023-02-26T04:54:21.146Z,7.07
2023-02-26T04:56:48.222Z,7.22
2023-02-26T04:59:15.436Z,6.88
2023-02-26T05:01:42.549Z,6.65
2023-02-26T05:04:09.849Z,6.10
2023-02-26T05:06:37.004Z,5.82
2023-02-26T05:09:04.314Z,6.50
2023-02-26T05:11:31.412Z,6.43
2023-02-26T05:13:58.545Z,6.28
2023-02-26T05:16:26.203Z,5.95
2023-02-26T05:18:53.550Z,6.85
2023-02-26T05:21:22.480Z,6.78
2023-02-26T05:23:50.157Z,6.32
2023-02-26T05:26:17.279Z,6.88
2023-02-26T05:28:45.873Z,7.25
2023-02-26T05:31:14.141Z,6.40
2023-02-26T05:33:41.599Z,7.35
2023-02-26T05:36:08.786Z,7.13
2023-02-26T05:38:36.117Z,7.05
2023-02-26T05:41:03.336Z,7.03
2023-02-26T05:43:31.057Z,7.70
2023-02-26T05:45:58.189Z,6.60
2023-02-26T05:48:25.315Z,7.47
2023-02-26T05:50:52.732Z,6.35
2023-02-26T05:53:20.260Z,7.18
2023-02-26T05:55:47.347Z,6.35
2023-02-26T05:58:15.649Z,6.93
2023-02-26T06:00:42.856Z,7.07
2023-02-26T06:03:10.083Z,6.75
2023-02-26T06:05:37.448Z,6.55
2023-02-26T06:08:05.578Z,6.35
2023-02-26T06:10:32.877Z,6.25
2023-02-26T06:13:00.104Z,5.55
2023-02-26T06:15:27.234Z,6.43
2023-02-26T06:17:55.876Z,6.15
2023-02-26T06:20:23.082Z,5.78
2023-02-26T06:22:50.706Z,5.95
2023-02-26T06:25:17.868Z,5.75
2023-02-26T06:27:45.091Z,5.75
2023-02-26T06:30:12.478Z,6.38
2023-02-26T06:32:39.708Z,6.40
2023-02-26T06:35:07.243Z,5.88
2023-02-26T06:37:34.370Z,6.55
2023-02-26T06:40:01.467Z,5.30
2023-02-26T06:42:28.657Z,5.95
2023-02-26T06:44:57.165Z,6.63
2023-02-26T06:47:24.871Z,6.38
2023-02-26T06:49:52.009Z,6.43
2023-02-26T06:52:19.126Z,6.35
2023-02-26T06:54:46.358Z,6.28
2023-02-26T06:57:13.495Z,6.75
2023-02-26T06:59:40.631Z,5.93
2023-02-26T07:02:07.784Z,7.28
2023-02-26T07:04:34.977Z,7.50
2023-02-26T07:07:02.052Z,6.90
2023-02-26T07:09:29.247Z,6.80
2023-02-26T07:11:56.396Z,6.88
2023-02-26T07:14:23.636Z,6.85
2023-02-26T07:16:50.801Z,8.02
2023-02-26T07:19:17.941Z,7.60
2023-02-26T07:21:45.043Z,7.78
2023-02-26T07:24:12.145Z,6.72
2023-02-26T07:26:39.321Z,7.93
2023-02-26T07:29:06.417Z,7.80
2023-02-26T07:31:34.172Z,6.50
2023-02-26T07:34:01.419Z,6.43
2023-02-26T07:36:28.595Z,7.13
2023-02-26T07:38:55.786Z,7.22
2023-02-26T07:41:22.960Z,7.50
2023-02-26T07:43:50.398Z,6.90
2023-02-26T07:46:17.564Z,7.05
2023-02-26T07:48:44.776Z,7.72
2023-02-26T07:51:11.861Z,7.47
2023-02-26T07:53:38.961Z,7.40
2023-02-26T07:56:06.179Z,8.27
2023-02-26T07:58:33.264Z,7.88
2023-02-26T08:01:00.348Z,7.75
2023-02-26T08:03:27.512Z,7.85
2023-02-26T08:05:54.612Z,7.57
2023-02-26T08:08:21.715Z,7.70
2023-02-26T08:10:48.862Z,7.43
2023-02-26T08:13:15.972Z,8.13
2023-02-26T08:15:44.079Z,7.50
2023-02-26T08:18:11.867Z,8.02
2023-02-26T08:20:39.018Z,7.63
2023-02-26T08:23:06.090Z,7.90
2023-02-26T08:25:33.221Z,7.75
2023-02-26T08:28:01.169Z,7.35
2023-02-26T08:30:28.354Z,8.27
2023-02-26T08:32:55.511Z,7.78
2023-02-26T08:35:22.671Z,7.70
2023-02-26T08:37:49.943Z,8.05
2023-02-26T08:40:17.176Z,7.88
2023-02-26T08:42:44.329Z,8.15
2023-02-26T08:45:11.585Z,7.40
2023-02-26T08:47:53.895Z,7.90
2023-02-26T08:50:23.322Z,7.65
2023-02-26T08:52:50.509Z,7.55
2023-02-26T08:55:17.665Z,7.47
2023-02-26T08:57:44.798Z,7.75
2023-02-26T09:00:12.274Z,7.53
2023-02-26T09:02:39.564Z,7.70
2023-02-26T09:05:06.862Z,7.15
2023-02-26T09:07:34.028Z,7.03
2023-02-26T09:10:01.148Z,8.48
2023-02-26T09:12:28.239Z,7.28
2023-02-26T09:14:55.502Z,7.18
2023-02-26T09:17:22.575Z,7.60
2023-02-26T09:19:49.692Z,7.03
2023-02-26T09:22:17.449Z,7.53
2023-02-26T09:24:44.614Z,7.75
2023-02-26T09:27:11.785Z,7.10
2023-02-26T09:29:39.001Z,7.20
2023-02-26T09:32:08.486Z,7.57
2023-02-26T09:34:39.230Z,6.90
2023-02-26T09:37:07.324Z,7.25
2023-02-26T09:39:34.655Z,7.68
2023-02-26T09:42:19.871Z,7.10
2023-02-26T09:44:48.608Z,7.82
2023-02-26T09:47:18.721Z,7.80
2023-02-26T09:49:51.728Z,7.35
2023-02-26T09:52:30.771Z,7.47
2023-02-26T09:55:00.338Z,7.72
2023-02-26T09:57:35.497Z,7.28
2023-02-26T10:00:05.516Z,6.97
2023-02-26T10:02:41.386Z,7.28
2023-02-26T10:05:23.854Z,7.47
2023-02-26T10:07:56.811Z,7.03
2023-02-26T10:10:36.293Z,7.55
2023-02-26T10:13:03.601Z,7.28
2023-02-26T10:15:33.097Z,7.70
2023-02-26T10:18:00.204Z,6.68
2023-02-26T10:20:33.501Z,7.80
2023-02-26T10:23:00.678Z,8.25
2023-02-26T10:25:32.096Z,8.30
2023-02-26T10:28:02.541Z,8.15
2023-02-26T10:30:35.652Z,8.27
2023-02-26T10:33:16.664Z,7.90
2023-02-26T10:35:48.127Z,7.63
2023-02-26T10:38:18.989Z,7.45
2023-02-26T10:40:51.605Z,7.25
2023-02-26T10:43:24.787Z,7.47
2023-02-26T10:45:51.895Z,7.07
2023-02-26T10:48:36.658Z,6.97
2023-02-26T10:51:10.758Z,7.50
2023-02-26T10:53:40.451Z,7.65
2023-02-26T10:56:10.829Z,7.20
2023-02-26T10:58:38.342Z,6.45
2023-02-26T11:01:08.158Z,7.43
2023-02-26T11:03:37.438Z,6.78
2023-02-26T11:06:05.203Z,6.95
2023-02-26T11:08:37.672Z,7.38
2023-02-26T11:11:05.780Z,7.50
2023-02-26T11:13:34.276Z,6.97
2023-02-26T11:16:03.303Z,7.78
2023-02-26T11:18:32.294Z,7.35
2023-02-26T11:21:00.504Z,6.80
2023-02-26T11:23:29.197Z,7.40
2023-02-26T11:26:02.571Z,7.00
2023-02-26T11:28:32.447Z,6.90
2023-02-26T11:31:01.984Z,7.00
2023-02-26T11:33:34.291Z,6.97
2023-02-26T11:36:03.343Z,7.07
2023-02-26T11:38:31.666Z,7.10
2023-02-26T11:40:59.218Z,6.55
2023-02-26T11:43:28.493Z,7.88
2023-02-26T11:46:01.591Z,7.47
2023-02-26T11:48:32.235Z,7.68
2023-02-26T11:51:01.004Z,8.60
2023-02-26T11:53:43.477Z,8.23
2023-02-26T11:56:14.665Z,7.72
2023-02-26T11:58:43.879Z,8.40
2023-02-26T12:01:12.023Z,7.78
2023-02-26T12:03:41.009Z,6.70
2023-02-26T12:06:13.795Z,8.77
2023-02-26T12:08:41.068Z,7.45
2023-02-26T12:11:13.392Z,7.25
2023-02-26T12:13:46.951Z,7.65
2023-02-26T12:16:21.127Z,7.20
2023-02-26T12:19:08.633Z,7.57
2023-02-26T12:21:41.779Z,7.03
2023-02-26T12:24:20.953Z,7.53
2023-02-26T12:26:50.767Z,7.72
2023-02-26T12:29:36.633Z,7.72
2023-02-26T12:32:12.690Z,8.43
2023-02-26T12:34:58.822Z,8.18
2023-02-26T12:37:41.997Z,7.50
2023-02-26T12:40:30.916Z,7.80
2023-02-26T12:43:04.094Z,7.00
2023-02-26T12:45:34.353Z,6.97
2023-02-26T12:48:20.148Z,6.40
2023-02-26T12:50:56.347Z,6.78
2023-02-26T12:53:29.182Z,5.82
2023-02-26T12:56:22.947Z,6.97
2023-02-26T12:58:55.746Z,6.65
2023-02-26T13:01:34.073Z,6.30
2023-02-26T13:04:01.217Z,6.47
2023-02-26T13:06:54.893Z,7.15
2023-02-26T13:09:24.876Z,6.05
2023-02-26T13:12:00.240Z,6.55
2023-02-26T13:14:37.732Z,6.45
2023-02-26T13:17:14.537Z,6.85
2023-02-26T13:19:50.248Z,7.20
2023-02-26T13:22:26.670Z,6.60
2023-02-26T13:24:53.767Z,7.22
2023-02-26T13:27:23.546Z,7.20
2023-02-26T13:29:55.085Z,6.35
2023-02-26T13:32:24.518Z,6.63
2023-02-26T13:34:59.532Z,6.97
2023-02-26T13:37:55.761Z,6.80
2023-02-26T13:40:30.944Z,7.05
2023-02-26T13:43:03.812Z,7.25
2023-02-26T13:45:31.018Z,7.47
2023-02-26T13:48:21.692Z,8.10
2023-02-26T13:51:07.694Z,8.07
2023-02-26T13:53:36.936Z,7.03
2023-02-26T13:56:08.963Z,6.70
2023-02-26T13:58:36.241Z,6.72
2023-02-26T14:01:06.577Z,6.95
2023-02-26T14:03:54.041Z,6.30
2023-02-26T14:06:24.285Z,6.40
2023-02-26T14:08:53.033Z,7.00
2023-02-26T14:11:40.413Z,7.50
2023-02-26T14:14:16.853Z,6.35
2023-02-26T14:16:45.272Z,6.63
2023-02-26T14:19:21.543Z,7.40
2023-02-26T14:22:02.452Z,8.00
2023-02-26T14:24:36.732Z,8.60
2023-02-26T14:27:13.104Z,7.47
2023-02-26T14:29:44.263Z,7.65
2023-02-26T14:32:11.468Z,7.22
2023-02-26T14:34:53.084Z,7.78
2023-02-26T14:37:22.067Z,8.18
2023-02-26T14:39:53.354Z,8.13
2023-02-26T14:44:50.119Z,6.68
2023-02-26T14:47:17.674Z,8.43
2023-02-26T14:49:46.576Z,7.55
2023-02-26T14:52:32.325Z,6.93
2023-02-26T14:54:59.410Z,6.63
2023-02-26T14:57:37.252Z,6.65
2023-02-26T15:00:14.071Z,6.85
2023-02-26T15:03:03.558Z,7.47
2023-02-26T15:05:41.195Z,7.22
2023-02-26T15:08:22.371Z,7.35
2023-02-26T15:11:08.841Z,7.32
2023-02-26T15:13:56.315Z,6.80
2023-02-26T15:16:36.170Z,6.82
2023-02-26T15:19:22.238Z,6.97
2023-02-26T15:22:08.356Z,7.38
2023-02-26T15:24:35.562Z,7.63
2023-02-26T15:27:04.187Z,7.50
2023-02-26T15:29:32.974Z,8.27
2023-02-26T15:32:05.857Z,8.05
2023-02-26T15:34:33.996Z,8.10
2023-02-26T15:37:01.379Z,8.98
2023-02-26T15:39:28.636Z,9.15
2023-02-26T15:41:56.521Z,9.55
2023-02-26T15:44:26.409Z,11.70
2023-02-26T15:46:55.887Z,11.20
2023-02-26T15:49:29.230Z,9.43
2023-02-26T15:51:56.856Z,8.43
2023-02-26T15:54:25.833Z,8.27
2023-02-26T15:56:53.248Z,8.65
2023-02-26T15:59:23.387Z,8.30
2023-02-26T16:01:50.612Z,8.48
2023-02-26T16:04:19.588Z,7.57
2023-02-26T16:06:51.309Z,7.45
2023-02-26T16:09:19.715Z,8.82
2023-02-26T16:11:47.731Z,9.73
2023-02-26T16:14:18.733Z,11.88
2023-02-26T16:16:47.157Z,12.63
2023-02-26T16:19:15.796Z,12.85
2023-02-26T16:21:43.728Z,11.85
2023-02-26T16:24:15.158Z,12.05
2023-02-26T16:26:48.194Z,11.35
2023-02-26T16:29:19.053Z,10.50
2023-02-26T16:31:49.595Z,9.13
2023-02-26T16:34:32.305Z,8.60
2023-02-26T16:36:59.561Z,8.25
2023-02-26T16:39:27.756Z,8.02
2023-02-26T16:42:16.535Z,8.15
2023-02-26T16:44:49.393Z,8.63
2023-02-26T16:47:17.198Z,9.52
2023-02-26T16:49:47.989Z,8.90
2023-02-26T16:52:17.171Z,8.18
2023-02-26T16:54:44.971Z,8.77
2023-02-26T16:57:12.028Z,9.00
2023-02-26T16:59:39.779Z,9.18
2023-02-26T17:02:27.058Z,10.55
2023-02-26T17:04:58.598Z,10.27
2023-02-26T17:07:31.628Z,10.32
2023-02-26T17:10:00.388Z,10.20
2023-02-26T17:12:39.868Z,10.45
2023-02-26T17:15:12.971Z,10.60
2023-02-26T17:17:40.056Z,10.82
2023-02-26T17:20:07.366Z,10.25
2023-02-26T17:22:36.096Z,9.70
2023-02-26T17:25:03.239Z,9.57
2023-02-26T17:27:37.431Z,10.15
2023-02-26T17:30:06.186Z,8.95
2023-02-26T17:32:33.573Z,8.70
2023-02-26T17:35:01.863Z,9.48
2023-02-26T17:37:39.613Z,9.45
2023-02-26T17:40:17.433Z,10.10
2023-02-26T17:42:45.247Z,9.52
2023-02-26T17:45:14.398Z,9.77
2023-02-26T17:47:41.652Z,9.90
2023-02-26T17:50:19.379Z,10.68
2023-02-26T17:52:46.527Z,10.52
2023-02-26T17:55:13.603Z,10.93
2023-02-26T17:57:40.713Z,10.60
2023-02-26T18:00:08.940Z,10.85
2023-02-26T18:02:36.072Z,11.82
2023-02-26T18:05:03.182Z,11.23
2023-02-26T18:07:30.397Z,11.68
2023-02-26T18:09:57.491Z,12.10
2023-02-26T18:12:24.599Z,12.02
2023-02-26T18:14:52.026Z,12.43
2023-02-26T18:17:21.498Z,13.00
2023-02-26T18:19:49.486Z,12.10
2023-02-26T18:22:17.582Z,13.20
2023-02-26T18:24:44.688Z,13.75
2023-02-26T18:27:15.751Z,13.32
2023-02-26T18:29:44.048Z,13.25
2023-02-26T18:32:15.086Z,12.95
2023-02-26T18:34:42.735Z,13.50
2023-02-26T18:37:12.990Z,12.68
2023-02-26T18:39:40.153Z,14.50
2023-02-26T18:42:07.292Z,14.75
2023-02-26T18:44:34.444Z,14.02
2023-02-26T18:47:01.588Z,14.23
2023-02-26T18:49:28.775Z,14.18
2023-02-26T18:51:55.948Z,14.23
2023-02-26T18:54:23.039Z,14.05
2023-02-26T18:56:50.136Z,14.48
2023-02-26T18:59:17.460Z,14.45
2023-02-26T19:01:44.901Z,13.68
2023-02-26T19:04:12.011Z,13.30
2023-02-26T19:06:39.166Z,13.85
2023-02-26T19:09:06.457Z,13.48
2023-02-26T19:11:33.541Z,14.52
2023-02-26T19:14:01.299Z,13.98
2023-02-26T19:16:30.739Z,14.50
2023-02-26T19:18:59.855Z,13.93
2023-02-26T19:21:28.244Z,15.18
2023-02-26T19:23:55.555Z,15.30
2023-02-26T19:26:22.846Z,14.88
2023-02-26T19:28:49.990Z,15.05
2023-02-26T19:31:17.218Z,16.05
2023-02-26T19:33:44.351Z,15.65
2023-02-26T19:36:11.726Z,15.52
2023-02-26T19:38:38.788Z,16.70
2023-02-26T19:41:05.897Z,15.90
2023-02-26T19:43:33.078Z,15.93
2023-02-26T19:46:00.234Z,15.98
2023-02-26T19:48:27.336Z,15.15
2023-02-26T19:50:55.621Z,14.68
2023-02-26T19:53:22.807Z,16.25
2023-02-26T19:55:50.734Z,15.00
2023-02-26T19:58:19.678Z,16.35
2023-02-26T20:00:47.049Z,14.23
2023-02-26T20:03:14.126Z,14.25
2023-02-26T20:05:41.304Z,16.05
2023-02-26T20:08:08.472Z,14.02
2023-02-26T20:10:35.635Z,13.82
2023-02-26T20:13:02.789Z,14.07
2023-02-26T20:15:29.920Z,14.13
2023-02-26T20:17:57.002Z,12.65
2023-02-26T20:20:24.196Z,13.25
2023-02-26T20:22:51.299Z,12.52
2023-02-26T20:25:19.843Z,12.20
2023-02-26T20:27:47.024Z,11.50
2023-02-26T20:30:14.533Z,11.98
2023-02-26T20:32:41.779Z,12.40
2023-02-26T20:35:09.649Z,12.27
2023-02-26T20:37:36.849Z,11.98
2023-02-26T20:40:05.329Z,12.05
2023-02-26T20:42:33.686Z,12.90
2023-02-26T20:45:01.223Z,11.73
2023-02-26T20:47:28.356Z,9.65
2023-02-26T20:49:55.601Z,11.68
2023-02-26T20:52:24.157Z,12.23
2023-02-26T20:54:51.264Z,12.93
2023-02-26T20:57:18.572Z,12.13
2023-02-26T20:59:45.690Z,12.10
2023-02-26T21:02:15.417Z,11.10
2023-02-26T21:04:42.709Z,9.55
2023-02-26T21:07:12.873Z,8.05
2023-02-26T21:09:41.019Z,8.63
2023-02-26T21:12:08.521Z,8.20
2023-02-26T21:14:36.313Z,8.25
2023-02-26T21:17:04.431Z,8.98
2023-02-26T21:19:31.927Z,8.45
2023-02-26T21:22:00.862Z,8.13
2023-02-26T21:24:28.732Z,7.90
2023-02-26T21:26:56.109Z,8.10
2023-02-26T21:29:23.619Z,7.05
2023-02-26T21:31:53.419Z,6.82
2023-02-26T21:34:33.208Z,7.07
2023-02-26T21:37:01.601Z,6.43
2023-02-26T21:39:30.655Z,6.43
2023-02-26T21:42:00.120Z,6.18
2023-02-26T21:44:27.584Z,6.43
2023-02-26T21:46:54.787Z,6.55
2023-02-26T21:49:21.953Z,6.07
2023-02-26T21:51:49.040Z,6.70
2023-02-26T21:54:16.222Z,6.25
2023-02-26T21:56:43.411Z,6.00
2023-02-26T21:59:10.521Z,6.10
2023-02-26T22:01:37.778Z,5.47
2023-02-26T22:04:05.177Z,5.65
2023-02-26T22:06:32.349Z,5.70
2023-02-26T22:08:59.503Z,5.90
2023-02-26T22:11:26.848Z,5.47
2023-02-26T22:13:54.155Z,5.50
2023-02-26T22:16:21.420Z,5.15
2023-02-26T22:18:48.533Z,5.38
2023-02-26T22:21:15.690Z,5.60
2023-02-26T22:23:42.836Z,5.47
2023-02-26T22:26:10.236Z,5.78
2023-02-26T22:28:37.327Z,5.22
2023-02-26T22:31:04.585Z,6.03
2023-02-26T22:33:31.724Z,5.88
2023-02-26T22:35:59.956Z,5.22
2023-02-26T22:38:27.425Z,5.50
2023-02-26T22:40:54.660Z,5.50
2023-02-26T22:43:21.901Z,5.80
2023-02-26T22:45:50.401Z,6.40
2023-02-26T22:48:17.646Z,6.32
2023-02-26T22:50:44.987Z,6.57
2023-02-26T22:53:12.161Z,6.13
2023-02-26T22:55:39.295Z,6.30
2023-02-26T22:58:06.632Z,6.55
2023-02-26T23:00:33.956Z,6.90
2023-02-26T23:03:01.078Z,6.20
2023-02-26T23:05:28.507Z,7.10
2023-02-26T23:07:55.706Z,7.35
2023-02-26T23:10:23.009Z,6.95
2023-02-26T23:12:50.186Z,6.68
2023-02-26T23:15:17.498Z,7.07
2023-02-26T23:17:44.817Z,7.35
2023-02-26T23:20:13.986Z,7.05
2023-02-26T23:22:41.672Z,7.50
2023-02-26T23:25:08.957Z,7.22
2023-02-26T23:27:36.527Z,7.30
2023-02-26T23:30:04.374Z,6.90
2023-02-26T23:32:31.460Z,7.13
2023-02-26T23:34:58.602Z,7.18
2023-02-26T23:37:25.767Z,6.97
2023-02-26T23:39:53.014Z,6.72
2023-02-26T23:42:20.198Z,6.70
2023-02-26T23:44:47.383Z,7.15
2023-02-26T23:47:14.510Z,6.82
2023-02-26T23:49:41.641Z,6.57
2023-02-26T23:52:08.792Z,5.82
2023-02-26T23:54:35.952Z,5.28
2023-02-26T23:57:03.055Z,5.22
2023-02-26T23:59:30.229Z,3.80
